createdAt,value
2019-05-01T00:02:17.906Z,97487.34
2019-05-01T00:04:52.294Z,97496.78
2019-05-01T00:07:20.743Z,97482.91
2019-05-01T00:09:47.523Z,97489.73
2019-05-01T00:12:14.386Z,97482.39
2019-05-01T00:14:41.183Z,97478.70
2019-05-01T00:17:07.964Z,97484.22
2019-05-01T00:19:34.748Z,97472.16
2019-05-01T00:22:01.512Z,97468.23
2019-05-01T00:24:28.280Z,97470.34
2019-05-01T00:26:55.068Z,97469.83
2019-05-01T00:29:21.857Z,97465.63
2019-05-01T00:31:48.644Z,97456.98
2019-05-01T00:34:15.439Z,97466.13
2019-05-01T00:36:42.215Z,97459.59
2019-05-01T00:39:10.663Z,97459.08
2019-05-01T00:41:37.424Z,97453.05
2019-05-01T00:44:04.188Z,97461.41
2019-05-01T00:46:30.960Z,97457.77
2019-05-01T00:48:57.728Z,97452.26
2019-05-01T00:51:24.530Z,97454.36
2019-05-01T00:53:51.306Z,97448.05
2019-05-01T00:56:19.723Z,97448.84
2019-05-01T00:58:57.335Z,97450.95
2019-05-01T01:01:25.760Z,97447.54
2019-05-01T01:03:52.531Z,97443.09
2019-05-01T01:06:19.348Z,97441.00
2019-05-01T01:08:46.139Z,97433.15
2019-05-01T01:11:12.920Z,97437.36
2019-05-01T01:13:39.687Z,97440.48
2019-05-01T01:16:06.466Z,97433.66
2019-05-01T01:18:33.242Z,97432.63
2019-05-01T01:21:00.080Z,97441.00
2019-05-01T01:23:26.932Z,97431.84
2019-05-01T01:25:53.707Z,97429.46
2019-05-01T01:28:20.487Z,97429.73
2019-05-01T01:30:56.048Z,97427.40
2019-05-01T01:33:15.785Z,97428.95
2019-05-01T01:35:42.565Z,97427.13
2019-05-01T01:38:09.374Z,97432.87
2019-05-01T01:40:36.517Z,97428.95
2019-05-01T01:43:17.145Z,97429.22
2019-05-01T01:45:45.566Z,97420.58
2019-05-01T01:48:14.228Z,97421.89
2019-05-01T01:50:41.005Z,97425.81
2019-05-01T01:53:07.799Z,97426.84
2019-05-01T01:55:34.586Z,97419.00
2019-05-01T01:58:01.361Z,97412.45
2019-05-01T02:00:29.784Z,97417.69
2019-05-01T02:02:58.220Z,97408.53
2019-05-01T02:05:26.653Z,97408.53
2019-05-01T02:07:53.455Z,97406.19
2019-05-01T02:10:20.248Z,97409.56
2019-05-01T02:12:47.081Z,97406.70
2019-05-01T02:15:13.859Z,97406.43
2019-05-01T02:17:40.692Z,97409.84
2019-05-01T02:20:07.477Z,97404.09
2019-05-01T02:22:34.260Z,97443.33
2019-05-01T02:25:01.040Z,97403.81
2019-05-01T02:27:29.475Z,97405.63
2019-05-01T02:29:57.896Z,97400.68
2019-05-01T02:32:24.699Z,97391.76
2019-05-01T02:34:51.474Z,97396.99
2019-05-01T02:37:18.240Z,97394.14
2019-05-01T02:39:45.043Z,97393.86
2019-05-01T02:42:11.813Z,97394.66
2019-05-01T02:44:38.615Z,97395.17
2019-05-01T02:47:05.454Z,97395.17
2019-05-01T02:49:32.324Z,97386.53
2019-05-01T02:51:59.113Z,97387.84
2019-05-01T02:54:25.903Z,97386.53
2019-05-01T02:57:00.016Z,97382.30
2019-05-01T02:59:26.825Z,97383.60
2019-05-01T03:01:53.619Z,97383.91
2019-05-01T03:04:20.462Z,97386.22
2019-05-01T03:06:47.246Z,97381.50
2019-05-01T03:09:14.021Z,97384.11
2019-05-01T03:11:40.798Z,97379.67
2019-05-01T03:14:07.565Z,97383.33
2019-05-01T03:16:34.371Z,97384.42
2019-05-01T03:19:05.718Z,97385.73
2019-05-01T03:21:37.007Z,97391.45
2019-05-01T03:24:11.134Z,97383.33
2019-05-01T03:26:37.980Z,97387.77
2019-05-01T03:29:04.748Z,97383.33
2019-05-01T03:31:31.535Z,97385.94
2019-05-01T03:33:58.323Z,97395.89
2019-05-01T03:36:25.186Z,97392.48
2019-05-01T03:38:51.975Z,97379.63
2019-05-01T03:41:18.785Z,97379.91
2019-05-01T03:43:45.570Z,97386.73
2019-05-01T03:46:12.354Z,97379.40
2019-05-01T03:48:39.143Z,97382.02
2019-05-01T03:51:05.912Z,97378.09
2019-05-01T03:53:32.690Z,97374.68
2019-05-01T03:55:59.464Z,97385.14
2019-05-01T03:58:26.271Z,97382.53
2019-05-01T04:00:54.690Z,97381.22
2019-05-01T04:03:23.103Z,97381.73
2019-05-01T04:05:49.873Z,97376.50
2019-05-01T04:08:16.649Z,97377.81
2019-05-01T04:10:43.417Z,97381.22
2019-05-01T04:13:10.210Z,97375.20
2019-05-01T04:15:36.998Z,97375.98
2019-05-01T04:18:05.403Z,97381.22
2019-05-01T04:20:32.250Z,97382.25
2019-05-01T04:22:59.051Z,97378.33
2019-05-01T04:25:25.808Z,97382.25
2019-05-01T04:27:54.158Z,97377.81
2019-05-01T04:30:34.408Z,97377.81
2019-05-01T04:33:02.827Z,97380.42
2019-05-01T04:35:31.229Z,97382.25
2019-05-01T04:37:58.008Z,97385.14
2019-05-01T04:40:24.778Z,97390.89
2019-05-01T04:42:51.600Z,97394.30
2019-05-01T04:45:18.412Z,97389.30
2019-05-01T04:47:45.208Z,97394.30
2019-05-01T04:50:11.965Z,97396.92
2019-05-01T04:52:38.757Z,97405.80
2019-05-01T04:55:05.534Z,97402.66
2019-05-01T04:57:32.312Z,97407.38
2019-05-01T04:59:59.110Z,97411.30
2019-05-01T05:02:27.537Z,97414.72
2019-05-01T05:04:54.384Z,97403.45
2019-05-01T05:07:21.175Z,97413.92
2019-05-01T05:09:48.044Z,97417.33
2019-05-01T05:12:34.925Z,97424.66
2019-05-01T05:15:05.856Z,97417.33
2019-05-01T05:17:32.617Z,97194.20
2019-05-01T05:19:59.414Z,97411.07
2019-05-01T05:22:26.176Z,97409.48
2019-05-01T05:24:52.975Z,97405.05
2019-05-01T05:27:19.746Z,97409.48
2019-05-01T05:29:46.528Z,97413.41
2019-05-01T05:32:13.308Z,97415.81
2019-05-01T05:34:40.101Z,97413.20
2019-05-01T05:37:11.486Z,97408.45
2019-05-01T05:39:48.220Z,97416.61
2019-05-01T05:42:14.984Z,97422.64
2019-05-01T05:44:41.765Z,97429.18
2019-05-01T05:47:08.555Z,97428.67
2019-05-01T05:49:35.328Z,97422.13
2019-05-01T05:52:03.748Z,97431.56
2019-05-01T05:54:32.163Z,97425.02
2019-05-01T05:57:00.592Z,97429.22
2019-05-01T05:59:29.029Z,97314.20
2019-05-01T06:01:57.450Z,97420.86
2019-05-01T06:04:25.862Z,97415.63
2019-05-01T06:06:57.063Z,97417.45
2019-05-01T06:09:25.497Z,97420.86
2019-05-01T06:11:56.717Z,97412.50
2019-05-01T06:14:41.329Z,97413.29
2019-05-01T06:17:28.678Z,97413.29
2019-05-01T06:19:58.048Z,97413.80
2019-05-01T06:22:26.476Z,97415.91
2019-05-01T06:25:03.790Z,97417.73
2019-05-01T06:27:30.548Z,97417.73
2019-05-01T06:29:57.317Z,97414.88
2019-05-01T06:32:24.099Z,97416.47
2019-05-01T06:34:50.913Z,97415.16
2019-05-01T06:37:21.003Z,97415.67
2019-05-01T06:39:48.032Z,97413.85
2019-05-01T06:42:16.771Z,97410.20
2019-05-01T06:44:47.815Z,97413.85
2019-05-01T06:47:19.346Z,97415.44
2019-05-01T06:49:47.777Z,97408.89
2019-05-01T06:52:16.205Z,97411.52
2019-05-01T06:54:42.985Z,97411.00
2019-05-01T06:57:09.772Z,97408.66
2019-05-01T06:59:36.551Z,97406.05
2019-05-01T07:02:03.415Z,97410.77
2019-05-01T07:04:32.472Z,97410.77
2019-05-01T07:07:01.976Z,97409.17
2019-05-01T07:09:28.305Z,97415.44
2019-05-01T07:11:55.275Z,97414.64
2019-05-01T07:14:22.113Z,97418.05
2019-05-01T07:16:48.890Z,97416.79
2019-05-01T07:19:16.543Z,97412.87
2019-05-01T07:21:43.318Z,97415.77
2019-05-01T07:24:10.103Z,97417.35
2019-05-01T07:26:36.861Z,97417.35
2019-05-01T07:29:06.115Z,97417.14
2019-05-01T07:31:33.802Z,97415.83
2019-05-01T07:34:00.658Z,97415.04
2019-05-01T07:36:27.420Z,97460.04
2019-05-01T07:38:54.227Z,97423.69
2019-05-01T07:41:20.995Z,97420.28
2019-05-01T07:43:59.747Z,97419.77
2019-05-01T07:46:25.396Z,97415.55
2019-05-01T07:48:52.177Z,97412.94
2019-05-01T07:51:18.973Z,97414.25
2019-05-01T07:53:45.767Z,97415.04
2019-05-01T07:56:12.528Z,97408.50
2019-05-01T07:58:39.397Z,97404.06
2019-05-01T08:01:13.038Z,97411.12
2019-05-01T08:03:42.761Z,97411.39
2019-05-01T08:06:07.540Z,97407.98
2019-05-01T08:08:34.314Z,97411.16
2019-05-01T08:11:05.316Z,97409.85
2019-05-01T08:13:30.611Z,97403.83
2019-05-01T08:16:01.964Z,97402.28
2019-05-01T08:18:31.047Z,97400.97
2019-05-01T08:21:15.990Z,97400.73
2019-05-01T08:23:46.955Z,97396.25
2019-05-01T08:26:11.261Z,97396.25
2019-05-01T08:28:42.610Z,97393.67
2019-05-01T08:31:28.995Z,97392.09
2019-05-01T08:34:06.470Z,97396.02
2019-05-01T08:36:33.276Z,97395.22
2019-05-01T08:39:00.059Z,97393.67
2019-05-01T08:41:31.453Z,97387.65
2019-05-01T08:43:55.901Z,97392.38
2019-05-01T08:46:40.862Z,97390.03
2019-05-01T08:49:12.677Z,97391.34
2019-05-01T08:51:39.505Z,97390.03
2019-05-01T08:54:06.293Z,97386.11
2019-05-01T08:56:33.071Z,97388.20
2019-05-01T08:58:59.849Z,97386.14
2019-05-01T09:01:26.634Z,97382.73
2019-05-01T09:03:54.156Z,97385.63
2019-05-01T09:06:34.204Z,97384.84
2019-05-01T09:08:50.681Z,97382.73
2019-05-01T09:11:17.457Z,97384.84
2019-05-01T09:13:44.252Z,97383.02
2019-05-01T09:16:11.023Z,97377.50
2019-05-01T09:18:37.835Z,97379.87
2019-05-01T09:21:04.682Z,97382.50
2019-05-01T09:23:34.309Z,97374.38
2019-05-01T09:26:17.822Z,97374.65
2019-05-01T09:28:58.378Z,97378.58
2019-05-01T09:31:26.819Z,97372.55
2019-05-01T09:33:53.637Z,97378.06
2019-05-01T09:36:20.412Z,97378.06
2019-05-01T09:38:49.890Z,97372.31
2019-05-01T09:41:15.686Z,97369.69
2019-05-01T09:43:42.469Z,97362.63
2019-05-01T09:46:09.270Z,97363.95
2019-05-01T09:48:36.042Z,97363.45
2019-05-01T09:51:20.609Z,97358.22
2019-05-01T09:54:09.579Z,97356.40
2019-05-01T09:56:34.230Z,97351.95
2019-05-01T09:59:01.006Z,97350.65
2019-05-01T10:01:31.637Z,97350.13
2019-05-01T10:03:56.438Z,97331.81
2019-05-01T10:06:23.267Z,97308.53
2019-05-01T10:08:50.039Z,97336.53
2019-05-01T10:11:16.844Z,97343.35
2019-05-01T10:13:43.605Z,97343.11
2019-05-01T10:16:10.417Z,97345.73
2019-05-01T10:18:37.445Z,97341.80
2019-05-01T10:21:04.236Z,97343.91
2019-05-01T10:23:31.017Z,97344.46
2019-05-01T10:25:59.424Z,97345.25
2019-05-01T10:28:27.871Z,97334.78
2019-05-01T10:30:56.300Z,97340.30
2019-05-01T10:33:29.050Z,97333.75
2019-05-01T10:36:03.622Z,97333.75
2019-05-01T10:38:30.438Z,97332.17
2019-05-01T10:40:57.226Z,97329.03
2019-05-01T10:43:23.994Z,97324.31
2019-05-01T10:45:50.764Z,97321.18
2019-05-01T10:48:17.552Z,97326.14
2019-05-01T10:50:44.320Z,97324.83
2019-05-01T10:53:11.107Z,97322.49
2019-05-01T10:55:37.923Z,97314.39
2019-05-01T10:58:04.726Z,97312.06
2019-05-01T11:00:31.526Z,97311.78
2019-05-01T11:02:58.310Z,97308.41
2019-05-01T11:05:25.090Z,97307.89
2019-05-01T11:07:51.866Z,97311.30
2019-05-01T11:10:18.662Z,97304.48
2019-05-01T11:12:45.456Z,97306.30
2019-05-01T11:15:12.312Z,97300.55
2019-05-01T11:17:39.101Z,97298.97
2019-05-01T11:20:05.894Z,97303.97
2019-05-01T11:22:32.681Z,97300.34
2019-05-01T11:24:59.461Z,97293.80
2019-05-01T11:27:26.247Z,97291.46
2019-05-01T11:29:53.040Z,97298.52
2019-05-01T11:32:27.477Z,97289.91
2019-05-01T11:34:55.922Z,97292.77
2019-05-01T11:37:30.443Z,97288.84
2019-05-01T11:39:58.893Z,97291.67
2019-05-01T11:42:25.683Z,97289.81
2019-05-01T11:44:52.460Z,97284.84
2019-05-01T11:47:19.256Z,97283.02
2019-05-01T11:49:46.063Z,97283.02
2019-05-01T11:52:12.834Z,97276.78
2019-05-01T11:54:39.635Z,97277.27
2019-05-01T11:57:06.396Z,97276.27
2019-05-01T11:59:33.174Z,97276.27
2019-05-01T12:02:02.349Z,97280.47
2019-05-01T12:04:28.506Z,97279.16
2019-05-01T12:06:55.340Z,97272.62
2019-05-01T12:09:22.118Z,97279.48
2019-05-01T12:11:50.540Z,97277.13
2019-05-01T12:14:17.583Z,97288.91
2019-05-01T12:16:48.980Z,97274.27
2019-05-01T12:19:15.768Z,97269.28
2019-05-01T12:21:42.570Z,97267.17
2019-05-01T12:24:09.355Z,97270.83
2019-05-01T12:26:36.135Z,97268.97
2019-05-01T12:29:02.922Z,97277.61
2019-05-01T12:31:31.233Z,97268.69
2019-05-01T12:33:58.152Z,97269.48
2019-05-01T12:36:35.629Z,97273.92
2019-05-01T12:38:53.426Z,97274.20
2019-05-01T12:41:21.851Z,97270.27
2019-05-01T12:43:48.616Z,97269.28
2019-05-01T12:46:33.248Z,97261.19
2019-05-01T12:49:00.208Z,97255.19
2019-05-01T12:51:27.059Z,97253.09
2019-05-01T12:53:58.325Z,97257.32
2019-05-01T12:56:29.654Z,97248.44
2019-05-01T12:58:56.475Z,97248.70
2019-05-01T13:01:23.235Z,97250.26
2019-05-01T13:03:50.025Z,97246.02
2019-05-01T13:06:16.793Z,97248.37
2019-05-01T13:08:43.579Z,97252.30
2019-05-01T13:11:10.370Z,97241.55
2019-05-01T13:13:37.156Z,97240.48
2019-05-01T13:16:03.956Z,97239.17
2019-05-01T13:18:30.726Z,97237.34
2019-05-01T13:20:57.523Z,97239.17
2019-05-01T13:23:24.300Z,97236.00
2019-05-01T13:25:51.647Z,97231.83
2019-05-01T13:28:25.838Z,97229.73
2019-05-01T13:30:54.240Z,97226.84
2019-05-01T13:33:21.017Z,97227.36
2019-05-01T13:35:47.790Z,97227.36
2019-05-01T13:38:14.586Z,97222.91
2019-05-01T13:40:41.358Z,97220.81
2019-05-01T13:43:08.124Z,97223.95
2019-05-01T13:45:34.916Z,97217.13
2019-05-01T13:48:01.701Z,97217.92
2019-05-01T13:50:28.823Z,97214.00
2019-05-01T13:52:55.607Z,97210.06
2019-05-01T13:55:22.640Z,97208.76
2019-05-01T13:57:49.413Z,97204.83
2019-05-01T14:00:17.845Z,97203.52
2019-05-01T14:02:44.632Z,97203.01
2019-05-01T14:05:11.411Z,97198.80
2019-05-01T14:07:38.197Z,97205.11
2019-05-01T14:10:04.997Z,97185.50
2019-05-01T14:12:31.791Z,97191.53
2019-05-01T14:14:58.586Z,97190.50
2019-05-01T14:17:25.381Z,97184.75
2019-05-01T14:20:05.748Z,97185.53
2019-05-01T14:22:34.192Z,97184.75
2019-05-01T14:25:05.345Z,97186.84
2019-05-01T14:27:32.134Z,97180.02
2019-05-01T14:29:58.914Z,97178.78
2019-05-01T14:32:25.709Z,97178.53
2019-05-01T14:34:52.491Z,97170.16
2019-05-01T14:37:29.464Z,97173.87
2019-05-01T14:39:49.107Z,97174.61
2019-05-01T14:42:15.882Z,97171.93
2019-05-01T14:44:42.791Z,97171.93
2019-05-01T14:47:09.612Z,97175.34
2019-05-01T14:49:36.410Z,97165.91
2019-05-01T14:52:03.253Z,97167.45
2019-05-01T14:54:30.068Z,97165.63
2019-05-01T14:56:56.848Z,97168.24
2019-05-01T14:59:23.616Z,97161.16
2019-05-01T15:01:50.404Z,97160.39
2019-05-01T15:04:17.178Z,97162.77
2019-05-01T15:06:44.045Z,97155.70
2019-05-01T15:09:10.832Z,97153.91
2019-05-01T15:11:38.194Z,97152.88
2019-05-01T15:14:18.442Z,97144.50
2019-05-01T15:17:03.350Z,97146.08
2019-05-01T15:19:31.764Z,97142.16
2019-05-01T15:21:58.597Z,97140.36
2019-05-01T15:24:25.377Z,97135.13
2019-05-01T15:26:52.171Z,97144.28
2019-05-01T15:29:18.944Z,97137.74
2019-05-01T15:31:45.747Z,97137.22
2019-05-01T15:34:12.535Z,97135.13
2019-05-01T15:36:39.352Z,97135.61
2019-05-01T15:39:06.158Z,97134.30
2019-05-01T15:41:34.560Z,97138.23
2019-05-01T15:44:05.922Z,97128.80
2019-05-01T15:46:34.055Z,97126.17
2019-05-01T15:49:00.834Z,97129.83
2019-05-01T15:51:27.614Z,97125.66
2019-05-01T15:53:54.393Z,97129.58
2019-05-01T15:56:21.189Z,97125.66
2019-05-01T15:58:47.967Z,97122.77
2019-05-01T16:01:14.767Z,97126.69
2019-05-01T16:03:41.541Z,97121.97
2019-05-01T16:06:08.540Z,97121.97
2019-05-01T16:08:35.375Z,97114.39
2019-05-01T16:11:03.868Z,97114.39
2019-05-01T16:13:30.662Z,97111.25
2019-05-01T16:15:57.439Z,97121.21
2019-05-01T16:18:24.208Z,97117.53
2019-05-01T16:20:51.046Z,97117.02
2019-05-01T16:23:17.823Z,97111.50
2019-05-01T16:25:44.604Z,97109.67
2019-05-01T16:28:11.396Z,97112.81
2019-05-01T16:30:38.252Z,97110.71
2019-05-01T16:33:05.494Z,97101.82
2019-05-01T16:35:32.268Z,97107.27
2019-05-01T16:38:00.689Z,97098.11
2019-05-01T16:40:38.119Z,97107.27
2019-05-01T16:43:06.564Z,97107.27
2019-05-01T16:45:33.339Z,97103.86
2019-05-01T16:48:00.113Z,97101.77
2019-05-01T16:50:26.948Z,97097.05
2019-05-01T16:52:53.827Z,97098.35
2019-05-01T16:55:20.650Z,96929.15
2019-05-01T16:57:47.455Z,97090.23
2019-05-01T17:00:14.295Z,97099.39
2019-05-01T17:02:51.725Z,97099.12
2019-05-01T17:05:23.116Z,97087.34
2019-05-01T17:07:54.650Z,97092.57
2019-05-01T17:10:32.055Z,97093.36
2019-05-01T17:12:58.830Z,97087.34
2019-05-01T17:15:27.267Z,97103.05
2019-05-01T17:17:54.052Z,97093.09
2019-05-01T17:20:20.894Z,97089.16
2019-05-01T17:22:50.797Z,97094.67
2019-05-01T17:25:16.187Z,97091.27
2019-05-01T17:27:42.973Z,97095.70
2019-05-01T17:30:20.577Z,97091.78
2019-05-01T17:32:47.369Z,97087.06
2019-05-01T17:35:14.145Z,96883.56
2019-05-01T17:37:40.955Z,97096.75
2019-05-01T17:40:07.762Z,97088.89
2019-05-01T17:42:37.614Z,97093.61
2019-05-01T17:45:03.071Z,97093.06
2019-05-01T17:47:29.898Z,97086.79
2019-05-01T17:49:56.711Z,97086.55
2019-05-01T17:52:23.482Z,97085.23
2019-05-01T17:54:50.290Z,97089.68
2019-05-01T17:57:17.163Z,97090.72
2019-05-01T17:59:45.416Z,97088.89
2019-05-01T18:02:20.006Z,97083.38
2019-05-01T18:04:54.406Z,97091.75
2019-05-01T18:07:21.198Z,97086.00
2019-05-01T18:09:51.504Z,97087.31
2019-05-01T18:12:16.531Z,97088.38
2019-05-01T18:14:43.396Z,97093.06
2019-05-01T18:17:10.170Z,97091.23
2019-05-01T18:19:36.971Z,97093.58
2019-05-01T18:22:05.368Z,97092.55
2019-05-01T18:24:39.481Z,97097.53
2019-05-01T18:27:24.538Z,97092.55
2019-05-01T18:29:52.964Z,97093.86
2019-05-01T18:32:24.320Z,97094.38
2019-05-01T18:34:51.098Z,97099.33
2019-05-01T18:37:22.450Z,97093.31
2019-05-01T18:39:49.216Z,97093.58
2019-05-01T18:42:17.261Z,97098.81
2019-05-01T18:44:47.598Z,97087.55
2019-05-01T18:47:12.557Z,97095.95
2019-05-01T18:49:39.337Z,97100.64
2019-05-01T18:52:06.607Z,97096.44
2019-05-01T18:54:35.076Z,97100.37
2019-05-01T18:57:01.867Z,97099.06
2019-05-01T18:59:28.664Z,97100.09
2019-05-01T19:01:55.492Z,97101.68
2019-05-01T19:04:23.616Z,97096.96
2019-05-01T19:06:50.764Z,97101.41
2019-05-01T19:09:29.380Z,97093.55
2019-05-01T19:11:46.067Z,97098.55
2019-05-01T19:14:13.182Z,97096.72
2019-05-01T19:16:45.068Z,97093.83
2019-05-01T19:19:08.488Z,97096.17
2019-05-01T19:21:35.624Z,97096.66
2019-05-01T19:24:02.842Z,97095.34
2019-05-01T19:26:30.972Z,97098.27
2019-05-01T19:28:57.862Z,97096.66
2019-05-01T19:31:24.748Z,97094.04
2019-05-01T19:33:51.572Z,97096.66
2019-05-01T19:36:18.348Z,97097.42
2019-05-01T19:38:45.146Z,97102.93
2019-05-01T19:41:14.338Z,97097.69
2019-05-01T19:43:42.111Z,97097.69
2019-05-01T19:46:09.116Z,97096.39
2019-05-01T19:48:35.934Z,97096.91
2019-05-01T19:51:02.963Z,97101.34
2019-05-01T19:53:30.011Z,97098.21
2019-05-01T19:55:56.852Z,97100.04
2019-05-01T19:58:24.048Z,97104.23
2019-05-01T20:00:50.849Z,97094.80
2019-05-01T20:03:17.697Z,97097.42
2019-05-01T20:05:44.460Z,97096.11
2019-05-01T20:08:11.271Z,97101.86
2019-05-01T20:10:38.047Z,97101.86
2019-05-01T20:13:07.129Z,97105.80
2019-05-01T20:15:33.327Z,97103.97
2019-05-01T20:18:00.102Z,97102.66
2019-05-01T20:20:26.958Z,97101.86
2019-05-01T20:22:55.353Z,97103.97
2019-05-01T20:25:22.380Z,97097.94
2019-05-01T20:27:53.099Z,97095.05
2019-05-01T20:30:17.663Z,97093.50
2019-05-01T20:32:44.444Z,97084.06
2019-05-01T20:35:11.248Z,97086.92
2019-05-01T20:37:38.086Z,97089.30
2019-05-01T20:40:11.228Z,97086.67
2019-05-01T20:42:33.386Z,97087.47
2019-05-01T20:45:05.662Z,97088.78
2019-05-01T20:47:35.348Z,97082.75
2019-05-01T20:49:57.179Z,97084.58
2019-05-01T20:52:23.967Z,97084.06
2019-05-01T20:54:50.768Z,97089.30
2019-05-01T20:57:21.033Z,97081.96
2019-05-01T20:59:48.356Z,97081.96
2019-05-01T21:02:15.240Z,97089.81
2019-05-01T21:05:00.077Z,97083.55
2019-05-01T21:07:34.509Z,97081.96
2019-05-01T21:10:02.862Z,97087.20
2019-05-01T21:12:29.638Z,97088.23
2019-05-01T21:14:56.410Z,97107.62
2019-05-01T21:17:23.197Z,97080.38
2019-05-01T21:19:49.982Z,97086.41
2019-05-01T21:22:16.776Z,97086.41
2019-05-01T21:24:44.419Z,97081.45
2019-05-01T21:27:13.229Z,97086.67
2019-05-01T21:29:40.038Z,97076.48
2019-05-01T21:32:06.882Z,97072.31
2019-05-01T21:34:33.691Z,97074.92
2019-05-01T21:37:00.462Z,97070.78
2019-05-01T21:39:27.242Z,97070.27
2019-05-01T21:41:54.025Z,97062.14
2019-05-01T21:44:20.792Z,97071.84
2019-05-01T21:46:47.624Z,97070.00
2019-05-01T21:49:14.475Z,97070.27
2019-05-01T21:51:44.345Z,97062.94
2019-05-01T21:54:09.780Z,97061.11
2019-05-01T21:56:37.026Z,97061.11
2019-05-01T21:59:08.384Z,97063.73
2019-05-01T22:01:34.721Z,97068.17
2019-05-01T22:04:02.468Z,97060.84
2019-05-01T22:06:29.329Z,97053.77
2019-05-01T22:08:56.119Z,97059.52
2019-05-01T22:11:22.923Z,97062.94
2019-05-01T22:13:49.699Z,97061.63
2019-05-01T22:16:23.891Z,97062.14
2019-05-01T22:18:52.319Z,97060.02
2019-05-01T22:21:26.975Z,97059.52
2019-05-01T22:24:12.137Z,97046.92
2019-05-01T22:26:52.813Z,97058.22
2019-05-01T22:29:21.235Z,97057.70
2019-05-01T22:32:06.227Z,97053.47
2019-05-01T22:34:34.642Z,97056.09
2019-05-01T22:37:01.619Z,97053.47
2019-05-01T22:39:30.036Z,97052.68
2019-05-01T22:41:56.800Z,97053.47
2019-05-01T22:44:23.678Z,97048.75
2019-05-01T22:46:50.439Z,97045.34
2019-05-01T22:49:17.486Z,97044.83
2019-05-01T22:51:44.264Z,97042.73
2019-05-01T22:54:11.051Z,97038.28
2019-05-01T22:56:37.852Z,97042.21
2019-05-01T22:59:04.631Z,97040.90
2019-05-01T23:01:31.464Z,97039.59
2019-05-01T23:03:59.871Z,97036.97
2019-05-01T23:06:26.664Z,97038.28
2019-05-01T23:08:53.438Z,97034.88
2019-05-01T23:11:20.875Z,97042.21
2019-05-01T23:13:47.688Z,97034.88
2019-05-01T23:16:15.043Z,97034.88
2019-05-01T23:18:41.810Z,97035.39
2019-05-01T23:21:09.798Z,97033.30
2019-05-01T23:23:37.081Z,97030.16
2019-05-01T23:26:03.866Z,97030.16
2019-05-01T23:28:30.628Z,97027.55
2019-05-01T23:30:57.484Z,97032.26
2019-05-01T23:33:24.251Z,97023.09
2019-05-01T23:35:51.031Z,97028.06
2019-05-01T23:38:17.892Z,97023.62
2019-05-01T23:40:46.159Z,97012.87
2019-05-01T23:43:13.191Z,97011.56
2019-05-01T23:45:40.071Z,97010.25
2019-05-01T23:48:06.860Z,97003.71
2019-05-01T23:50:33.638Z,97006.06
2019-05-01T23:53:00.398Z,97001.09
2019-05-01T23:55:27.207Z,96999.78
2019-05-01T23:57:53.981Z,96999.00
